ENMS/MJF METAR and TAF weather

Enter ICAO airport designator
Station Type Date Time Source
ENMS METAR 2019/02/23 16:20 UTC NOAA

ENMS 231620Z 18008KT 9999 VCSH FEW014 SCT022 BKN029 08/04 Q1021 RMK WIND 412FT VRB06KT


Station Type Date Time Source
ENMS Decoded METAR 2019/02/23 16:20 UTC NOAA

Mosjoen Kjaerstad, Norway (ENMS) 65-48N 013-08E
Feb 23, 2019 - 11:20 AM EST / 2019.02.23 1620 UTC
Wind: from the S (180 degrees) at 9 MPH (8 KT):0
Visibility: greater than 7 mile(s):0
Sky conditions: mostly cloudy
Weather: showers in the vicinity
Temperature: 46 F (8 C)
Dew Point: 39 F (4 C)
Relative Humidity: 75%
Pressure (altimeter): 30.15 in. Hg (1021 hPa)
ob: ENMS 231620Z 18008KT 9999 VCSH FEW014 SCT022 BKN029 08/04 Q1021 RMK WIND 412FT VRB06KT
cycle: 16

Station Type Date Time Source
ENMS TAF UTC NOAA

Error!


Example: see airport list